createdAt,value
2022-09-05T00:02:03.395Z,61.37
2022-09-05T00:05:31.355Z,61.48
2022-09-05T00:08:33.098Z,61.95
2022-09-05T00:11:43.891Z,61.84
2022-09-05T00:15:16.018Z,62.46
2022-09-05T00:20:40.685Z,62.85
2022-09-05T00:24:32.906Z,63.09
2022-09-05T00:25:31.714Z,63.49
2022-09-05T00:28:28.619Z,63.94
2022-09-05T00:31:56.140Z,64.28
2022-09-05T00:35:03.105Z,64.55
2022-09-05T00:37:51.125Z,64.85
2022-09-05T00:41:02.584Z,65.14
2022-09-05T00:43:51.208Z,65.62
2022-09-05T00:46:47.885Z,65.81
2022-09-05T00:49:44.355Z,66.01
2022-09-05T00:52:38.465Z,66.46
2022-09-05T00:56:07.206Z,66.66
2022-09-05T00:59:30.670Z,66.89
2022-09-05T01:02:49.806Z,66.94
2022-09-05T01:05:43.979Z,67.19
2022-09-05T01:09:07.314Z,67.21
2022-09-05T01:11:57.025Z,67.26
2022-09-05T01:15:15.000Z,67.60
2022-09-05T01:18:18.810Z,67.81
2022-09-05T01:21:26.405Z,67.77
2022-09-05T01:24:53.715Z,67.73
2022-09-05T01:29:13.165Z,67.79
2022-09-05T01:31:15.818Z,67.67
2022-09-05T01:34:29.647Z,67.94
2022-09-05T01:38:03.426Z,68.20
2022-09-05T01:41:18.356Z,68.09
2022-09-05T01:44:27.274Z,68.34
2022-09-05T01:47:37.054Z,68.24
2022-09-05T01:50:46.122Z,68.35
2022-09-05T01:54:24.401Z,68.76
2022-09-05T01:57:23.355Z,68.75
2022-09-05T02:00:22.790Z,68.89
2022-09-05T02:03:35.386Z,68.97
2022-09-05T02:06:50.613Z,69.44
2022-09-05T02:10:13.688Z,69.56
2022-09-05T02:13:30.458Z,69.70
2022-09-05T02:16:17.254Z,69.96
2022-09-05T02:19:09.308Z,70.10
2022-09-05T02:22:26.362Z,70.36
2022-09-05T02:26:03.000Z,70.60
2022-09-05T02:28:50.660Z,70.94
2022-09-05T02:32:06.455Z,71.10
2022-09-05T02:35:01.865Z,71.34
2022-09-05T02:40:56.008Z,71.75
2022-09-05T02:45:12.353Z,72.00
2022-09-05T02:45:20.203Z,72.11
2022-09-05T02:48:04.136Z,72.53
2022-09-05T02:56:36.251Z,72.65
2022-09-05T02:58:04.375Z,73.04
2022-09-05T02:58:16.244Z,73.07
2022-09-05T03:01:27.280Z,73.32
2022-09-05T03:04:35.055Z,73.44
2022-09-05T03:07:55.076Z,73.71
2022-09-05T03:10:54.675Z,74.18
2022-09-05T03:14:00.296Z,74.25
2022-09-05T03:17:21.211Z,74.76
2022-09-05T03:21:08.955Z,75.41
2022-09-05T03:24:12.364Z,75.37
2022-09-05T03:27:10.221Z,75.58
2022-09-05T03:30:17.485Z,75.86
2022-09-05T03:33:24.370Z,76.07
2022-09-05T03:36:55.568Z,76.24
2022-09-05T03:40:15.168Z,76.60
2022-09-05T03:43:26.241Z,77.04
2022-09-05T03:47:02.696Z,77.60
2022-09-05T03:57:06.020Z,77.55
2022-09-05T03:57:23.097Z,77.56
2022-09-05T03:57:32.363Z,77.99
2022-09-05T04:00:24.079Z,78.01
2022-09-05T04:08:07.635Z,78.01
2022-09-05T04:08:18.781Z,78.18
2022-09-05T04:10:02.763Z,78.17
2022-09-05T04:12:57.931Z,77.88
2022-09-05T04:15:54.739Z,78.00
2022-09-05T04:18:51.780Z,78.20
2022-09-05T04:21:54.855Z,78.28
2022-09-05T04:24:46.752Z,78.25
2022-09-05T04:27:38.765Z,78.36
2022-09-05T04:30:45.031Z,78.32
2022-09-05T04:33:46.703Z,78.18
2022-09-05T04:36:36.584Z,78.11
2022-09-05T04:39:22.297Z,77.96
2022-09-05T04:42:17.112Z,77.83
2022-09-05T04:45:12.935Z,77.72
2022-09-05T04:48:07.868Z,77.55
2022-09-05T04:51:02.105Z,77.31
2022-09-05T04:54:09.012Z,77.02
2022-09-05T04:57:15.965Z,76.77
2022-09-05T05:05:59.435Z,76.66
2022-09-05T05:06:17.933Z,76.41
2022-09-05T05:07:07.761Z,76.55
2022-09-05T05:10:25.585Z,75.10
2022-09-05T05:17:56.692Z,70.65
2022-09-05T05:18:13.107Z,66.46
2022-09-05T05:20:40.352Z,61.48
2022-09-05T05:23:07.578Z,57.33
2022-09-05T05:26:02.650Z,54.49
2022-09-05T05:29:00.330Z,52.27
2022-09-05T05:31:56.324Z,49.73
2022-09-05T05:34:46.405Z,47.74
2022-09-05T05:37:42.789Z,46.83
2022-09-05T05:40:42.356Z,45.53
2022-09-05T05:43:46.672Z,42.27
2022-09-05T05:46:38.477Z,42.77
2022-09-05T05:49:52.451Z,41.82
2022-09-05T05:52:50.817Z,41.13
2022-09-05T05:56:11.782Z,41.64
2022-09-05T05:59:16.390Z,42.01
2022-09-05T06:02:15.964Z,40.98
2022-09-05T06:05:27.735Z,40.19
2022-09-05T06:10:33.778Z,39.00
2022-09-05T06:14:57.997Z,37.87
2022-09-05T06:16:18.565Z,37.84
2022-09-05T06:19:08.591Z,37.54
2022-09-05T06:22:31.390Z,37.53
2022-09-05T06:25:54.713Z,38.18
2022-09-05T06:28:54.676Z,38.44
2022-09-05T06:32:12.605Z,39.84
2022-09-05T06:35:17.120Z,40.67
2022-09-05T06:38:24.901Z,41.90
2022-09-05T06:41:33.985Z,42.97
2022-09-05T06:45:27.836Z,43.89
2022-09-05T06:48:32.116Z,43.95
2022-09-05T06:51:49.145Z,44.78
2022-09-05T06:55:14.922Z,46.00
2022-09-05T06:58:22.747Z,45.43
2022-09-05T07:01:11.700Z,46.00
2022-09-05T07:05:23.347Z,45.63
2022-09-05T07:07:46.795Z,45.65
2022-09-05T07:10:39.973Z,45.55
2022-09-05T07:13:25.950Z,45.25
2022-09-05T07:16:42.051Z,45.30
2022-09-05T07:19:54.899Z,45.24
2022-09-05T07:23:40.929Z,44.43
2022-09-05T07:26:42.066Z,44.78
2022-09-05T07:29:28.153Z,43.74
2022-09-05T07:32:23.786Z,42.57
2022-09-05T07:35:31.259Z,42.46
2022-09-05T07:38:55.280Z,41.39
2022-09-05T07:41:55.685Z,40.96
2022-09-05T07:45:05.878Z,40.35
2022-09-05T07:48:15.695Z,39.44
2022-09-05T07:56:49.149Z,38.54
2022-09-05T07:56:54.262Z,37.83
2022-09-05T07:57:50.869Z,37.57
2022-09-05T08:00:37.682Z,36.64
2022-09-05T08:03:29.905Z,35.32
2022-09-05T08:07:34.347Z,34.45
2022-09-05T08:10:05.920Z,33.48
2022-09-05T08:13:24.352Z,33.26
2022-09-05T08:16:19.518Z,33.72
2022-09-05T08:19:28.459Z,32.84
2022-09-05T08:22:21.919Z,32.47
2022-09-05T08:25:35.000Z,32.31
2022-09-05T08:29:06.062Z,31.65
2022-09-05T08:32:01.077Z,30.51
2022-09-05T08:35:09.576Z,29.56
2022-09-05T08:37:58.215Z,29.57
2022-09-05T08:40:59.470Z,28.22
2022-09-05T08:46:17.035Z,27.79
2022-09-05T08:47:16.724Z,27.61
2022-09-05T08:50:28.625Z,28.01
2022-09-05T08:53:46.482Z,26.31
2022-09-05T08:56:47.936Z,26.70
2022-09-05T09:00:20.399Z,27.39
2022-09-05T09:03:20.503Z,25.96
2022-09-05T09:06:45.855Z,24.88
2022-09-05T09:10:13.897Z,25.17
2022-09-05T09:13:36.849Z,25.28
2022-09-05T09:16:33.858Z,24.47
2022-09-05T09:19:42.261Z,24.71
2022-09-05T09:22:50.631Z,23.48
2022-09-05T09:25:47.285Z,23.23
2022-09-05T09:29:07.170Z,22.69
2022-09-05T09:32:15.169Z,23.17
2022-09-05T09:35:07.129Z,22.11
2022-09-05T09:38:16.371Z,22.33
2022-09-05T09:41:29.295Z,22.05
2022-09-05T09:44:15.805Z,22.27
2022-09-05T09:47:09.440Z,21.46
2022-09-05T09:50:32.648Z,21.89
2022-09-05T09:53:37.211Z,20.52
2022-09-05T09:56:50.637Z,20.87
2022-09-05T10:00:10.342Z,21.93
2022-09-05T10:08:26.957Z,21.59
2022-09-05T10:10:34.107Z,21.77
2022-09-05T10:11:09.534Z,20.35
2022-09-05T10:13:59.594Z,20.84
2022-09-05T10:17:07.628Z,21.07
2022-09-05T10:20:15.295Z,20.67
2022-09-05T10:23:44.863Z,20.59
2022-09-05T10:27:00.790Z,19.92
2022-09-05T10:30:08.245Z,18.95
2022-09-05T10:35:19.950Z,18.54
2022-09-05T10:37:06.572Z,18.55
2022-09-05T10:39:52.780Z,18.44
2022-09-05T10:43:03.582Z,18.39
2022-09-05T10:46:06.232Z,18.40
2022-09-05T10:48:55.479Z,17.69
2022-09-05T10:52:13.138Z,16.89
2022-09-05T10:55:26.405Z,17.25
2022-09-05T11:02:11.558Z,17.73
2022-09-05T11:02:29.118Z,17.71
2022-09-05T11:05:19.484Z,18.70
2022-09-05T11:08:15.150Z,18.50
2022-09-05T11:11:26.002Z,18.05
2022-09-05T11:15:05.448Z,17.88
2022-09-05T11:18:11.328Z,17.96
2022-09-05T11:21:41.791Z,17.90
2022-09-05T11:24:27.707Z,17.29
2022-09-05T11:27:40.641Z,17.32
2022-09-05T11:30:35.557Z,17.22
2022-09-05T11:39:50.663Z,17.75
2022-09-05T11:39:59.729Z,18.46
2022-09-05T11:40:28.384Z,17.79
2022-09-05T11:44:07.144Z,17.76
2022-09-05T11:47:44.914Z,18.40
2022-09-05T11:50:30.859Z,19.40
2022-09-05T11:53:22.258Z,18.91
2022-09-05T11:56:13.976Z,17.86
2022-09-05T11:59:33.600Z,17.75
2022-09-05T12:02:39.412Z,16.41
2022-09-05T12:05:58.813Z,17.39
2022-09-05T12:08:55.004Z,17.46
2022-09-05T12:12:38.996Z,17.01
2022-09-05T12:15:34.546Z,17.44
2022-09-05T12:18:40.605Z,17.60
2022-09-05T12:21:50.865Z,18.58
2022-09-05T12:25:27.638Z,19.64
2022-09-05T12:29:33.517Z,19.67
2022-09-05T12:33:52.365Z,19.44
2022-09-05T12:36:06.665Z,18.53
2022-09-05T12:41:42.381Z,18.93
2022-09-05T12:41:44.588Z,19.17
2022-09-05T12:44:44.240Z,18.89
2022-09-05T12:47:31.527Z,19.89
2022-09-05T12:50:19.693Z,21.02
2022-09-05T12:53:11.195Z,20.69
2022-09-05T12:59:33.466Z,19.94
2022-09-05T13:03:00.951Z,18.58
2022-09-05T13:03:28.028Z,18.05
2022-09-05T13:06:26.199Z,17.84
2022-09-05T13:10:51.286Z,18.12
2022-09-05T13:14:57.076Z,17.40
2022-09-05T13:16:13.435Z,17.24
2022-09-05T13:19:31.386Z,16.31
2022-09-05T13:22:21.578Z,16.53
2022-09-05T13:25:16.849Z,17.11
2022-09-05T13:28:09.378Z,17.25
2022-09-05T13:36:20.820Z,17.63
2022-09-05T13:38:07.303Z,17.62
2022-09-05T13:38:30.571Z,17.08
2022-09-05T13:40:41.744Z,16.96
2022-09-05T13:43:39.695Z,16.92
2022-09-05T13:46:57.421Z,16.73
2022-09-05T13:50:13.844Z,17.27
2022-09-05T13:53:36.872Z,17.33
2022-09-05T13:56:28.350Z,16.95
2022-09-05T13:59:16.391Z,16.92
2022-09-05T14:03:29.576Z,16.56
2022-09-05T14:05:55.602Z,16.05
2022-09-05T14:09:35.153Z,16.18
2022-09-05T14:12:06.239Z,15.99
2022-09-05T14:15:14.059Z,15.85
2022-09-05T14:18:23.261Z,16.63
2022-09-05T14:21:17.537Z,16.16
2022-09-05T14:24:28.151Z,15.87
2022-09-05T14:27:31.820Z,15.15
2022-09-05T14:32:07.929Z,14.96
2022-09-05T14:37:38.868Z,14.75
2022-09-05T14:37:44.363Z,14.58
2022-09-05T14:40:06.730Z,14.62
2022-09-05T14:43:17.342Z,14.57
2022-09-05T14:46:32.750Z,14.77
2022-09-05T14:49:29.588Z,14.52
2022-09-05T14:51:58.483Z,14.93
2022-09-05T15:02:46.101Z,18.73
2022-09-05T15:02:48.566Z,20.50
2022-09-05T15:03:15.473Z,22.19
2022-09-05T15:05:50.505Z,22.37
2022-09-05T15:10:09.123Z,21.48
2022-09-05T15:12:21.983Z,19.93
2022-09-05T15:14:13.275Z,18.17
2022-09-05T15:17:05.424Z,16.95
2022-09-05T15:20:06.724Z,16.90
2022-09-05T15:22:43.237Z,16.13
2022-09-05T15:25:19.274Z,16.27
2022-09-05T15:27:49.799Z,16.08
2022-09-05T15:30:22.770Z,16.03
2022-09-05T15:33:19.148Z,16.06
2022-09-05T15:35:55.288Z,16.35
2022-09-05T15:38:31.342Z,16.78
2022-09-05T15:41:17.462Z,17.27
2022-09-05T15:43:51.639Z,17.35
2022-09-05T15:46:46.631Z,17.73
2022-09-05T15:49:33.178Z,18.02
2022-09-05T15:52:17.716Z,18.36
2022-09-05T15:54:50.537Z,18.96
2022-09-05T15:57:27.948Z,19.38
2022-09-05T16:00:06.335Z,19.76
2022-09-05T16:02:39.233Z,20.24
2022-09-05T16:10:27.108Z,20.55
2022-09-05T16:10:38.969Z,20.53
2022-09-05T16:12:05.193Z,20.92
2022-09-05T16:14:24.139Z,21.06
2022-09-05T16:23:13.325Z,21.40
2022-09-05T16:23:28.091Z,22.01
2022-09-05T16:23:42.055Z,22.58
2022-09-05T16:26:25.712Z,23.66
2022-09-05T16:29:26.436Z,25.27
2022-09-05T16:32:03.107Z,27.44
2022-09-05T16:34:54.976Z,29.83
2022-09-05T16:37:23.087Z,31.26
2022-09-05T16:40:21.859Z,32.03
2022-09-05T16:43:07.408Z,33.35
2022-09-05T16:45:52.543Z,34.90
2022-09-05T16:48:26.424Z,35.85
2022-09-05T16:51:35.742Z,36.56
2022-09-05T16:54:36.398Z,37.93
2022-09-05T16:57:09.283Z,38.80
2022-09-05T16:59:55.467Z,39.33
2022-09-05T17:02:44.166Z,40.42
2022-09-05T17:05:24.960Z,41.65
2022-09-05T17:08:03.155Z,42.84
2022-09-05T17:10:43.230Z,44.05
2022-09-05T17:13:34.261Z,44.95
2022-09-05T17:16:04.443Z,46.06
2022-09-05T17:18:38.060Z,46.89
2022-09-05T17:21:11.491Z,47.87
2022-09-05T17:29:20.603Z,48.54
2022-09-05T17:29:30.408Z,48.73
2022-09-05T17:31:23.390Z,49.30
2022-09-05T17:32:34.335Z,49.55
2022-09-05T17:35:17.779Z,49.94
2022-09-05T17:37:53.453Z,50.87
2022-09-05T17:41:06.519Z,51.28
2022-09-05T17:43:41.365Z,51.13
2022-09-05T17:46:12.309Z,51.75
2022-09-05T17:48:46.530Z,52.12
2022-09-05T17:51:26.905Z,52.65
2022-09-05T17:54:03.320Z,52.88
2022-09-05T17:56:40.274Z,52.99
2022-09-05T17:59:14.285Z,53.31
2022-09-05T18:02:02.435Z,53.46
2022-09-05T18:04:45.144Z,54.25
2022-09-05T18:07:25.814Z,54.44
2022-09-05T18:10:15.596Z,54.93
2022-09-05T18:13:31.835Z,54.68
2022-09-05T18:16:11.327Z,54.35
2022-09-05T18:19:32.159Z,54.46
2022-09-05T18:21:49.769Z,54.71
2022-09-05T18:24:48.651Z,54.34
2022-09-05T18:28:03.612Z,54.12
2022-09-05T18:30:28.574Z,54.56
2022-09-05T18:33:54.093Z,55.65
2022-09-05T18:35:55.614Z,56.37
2022-09-05T18:38:50.939Z,56.69
2022-09-05T18:41:28.646Z,56.61
2022-09-05T18:44:13.152Z,56.42
2022-09-05T18:46:53.529Z,57.35
2022-09-05T18:50:23.898Z,57.46
2022-09-05T18:52:24.158Z,57.35
2022-09-05T18:56:09.290Z,57.56
2022-09-05T18:58:13.513Z,57.36
2022-09-05T19:00:46.913Z,57.27
2022-09-05T19:03:34.803Z,57.61
2022-09-05T19:06:35.799Z,57.43
2022-09-05T19:09:04.880Z,57.67
2022-09-05T19:11:53.470Z,57.02
2022-09-05T19:14:35.295Z,56.93
2022-09-05T19:17:10.344Z,56.76
2022-09-05T19:20:31.401Z,56.60
2022-09-05T19:23:09.899Z,56.21
2022-09-05T19:25:44.153Z,56.44
2022-09-05T19:36:15.729Z,56.83
2022-09-05T19:37:02.462Z,56.97
2022-09-05T19:37:06.266Z,57.25
2022-09-05T19:37:29.363Z,57.43
2022-09-05T19:47:25.216Z,57.71
2022-09-05T19:47:33.801Z,57.99
2022-09-05T19:47:47.234Z,58.12
2022-09-05T19:48:35.242Z,57.88
2022-09-05T19:51:17.133Z,57.68
2022-09-05T19:54:04.889Z,57.95
2022-09-05T19:56:37.823Z,58.27
2022-09-05T19:59:27.205Z,58.51
2022-09-05T20:02:04.897Z,58.57
2022-09-05T20:04:54.866Z,59.00
2022-09-05T20:07:28.875Z,59.21
2022-09-05T20:09:59.276Z,59.01
2022-09-05T20:12:36.881Z,58.62
2022-09-05T20:15:25.817Z,58.79
2022-09-05T20:18:41.116Z,59.05
2022-09-05T20:21:09.488Z,58.98
2022-09-05T20:23:49.608Z,59.23
2022-09-05T20:26:24.855Z,59.10
2022-09-05T20:29:02.766Z,59.31
2022-09-05T20:31:47.407Z,59.70
2022-09-05T20:35:50.221Z,59.85
2022-09-05T20:43:15.137Z,59.84
2022-09-05T20:43:23.027Z,60.19
2022-09-05T20:43:35.019Z,59.98
2022-09-05T20:47:24.707Z,60.36
2022-09-05T20:54:13.918Z,60.13
2022-09-05T20:54:16.970Z,60.15
2022-09-05T20:54:42.464Z,60.48
2022-09-05T20:57:18.259Z,60.58
2022-09-05T20:59:47.449Z,60.60
2022-09-05T21:02:28.657Z,60.93
2022-09-05T21:05:20.846Z,61.35
2022-09-05T21:08:07.060Z,61.63
2022-09-05T21:10:55.538Z,61.69
2022-09-05T21:13:35.537Z,61.96
2022-09-05T21:16:15.960Z,62.26
2022-09-05T21:18:45.059Z,62.53
2022-09-05T21:21:28.535Z,62.90
2022-09-05T21:24:16.291Z,63.13
2022-09-05T21:26:48.955Z,63.65
2022-09-05T21:29:32.329Z,63.81
2022-09-05T21:32:10.288Z,64.15
2022-09-05T21:34:47.708Z,64.80
2022-09-05T21:37:17.865Z,65.08
2022-09-05T21:39:59.846Z,65.03
2022-09-05T21:45:56.276Z,65.11
2022-09-05T21:47:44.677Z,65.42
2022-09-05T21:48:15.652Z,65.61
2022-09-05T21:50:50.275Z,65.71
2022-09-05T21:57:12.855Z,65.81
2022-09-05T21:59:19.802Z,66.19
2022-09-05T21:59:38.872Z,66.22
2022-09-05T22:02:17.081Z,66.36
2022-09-05T22:04:47.441Z,66.38
2022-09-05T22:07:31.850Z,66.32
2022-09-05T22:10:07.037Z,66.36
2022-09-05T22:12:37.155Z,66.58
2022-09-05T22:15:27.529Z,66.76
2022-09-05T22:18:16.668Z,66.58
2022-09-05T22:21:32.080Z,66.42
2022-09-05T22:23:47.105Z,66.10
2022-09-05T22:26:18.066Z,66.05
2022-09-05T22:28:52.203Z,66.18
2022-09-05T22:31:22.008Z,66.41
2022-09-05T22:33:51.413Z,66.25
2022-09-05T22:36:20.165Z,66.21
2022-09-05T22:38:48.399Z,66.35
2022-09-05T22:41:17.114Z,66.47
2022-09-05T22:43:46.530Z,66.43
2022-09-05T22:46:15.223Z,66.57
2022-09-05T22:48:43.789Z,66.66
2022-09-05T22:51:12.198Z,66.72
2022-09-05T22:53:40.315Z,67.04
2022-09-05T22:56:09.774Z,67.52
2022-09-05T22:58:40.485Z,67.56
2022-09-05T23:01:09.702Z,67.68
2022-09-05T23:03:38.338Z,67.87
2022-09-05T23:06:09.371Z,67.94
2022-09-05T23:08:37.435Z,68.30
2022-09-05T23:11:11.438Z,68.46
2022-09-05T23:13:39.705Z,68.76
2022-09-05T23:16:09.077Z,68.97
2022-09-05T23:18:37.579Z,69.44
2022-09-05T23:21:11.810Z,69.62
2022-09-05T23:23:41.567Z,69.71
2022-09-05T23:26:13.412Z,70.08
2022-09-05T23:28:43.664Z,70.18
2022-09-05T23:31:12.993Z,70.41
2022-09-05T23:33:42.095Z,70.73
2022-09-05T23:36:14.012Z,70.76
2022-09-05T23:38:43.679Z,70.54
2022-09-05T23:41:14.424Z,70.55
2022-09-05T23:43:43.110Z,70.34
2022-09-05T23:46:11.469Z,70.82
2022-09-05T23:48:39.962Z,70.76
2022-09-05T23:51:10.831Z,70.96
2022-09-05T23:53:39.337Z,71.19
2022-09-05T23:56:09.775Z,71.01
2022-09-05T23:58:39.014Z,71.14
